Maryport, United Kingdom
Current Conditions -  °F | °C
As of 2:50 AM on Monday 22 Dec 2014 (Local Time) from EGOM Reporting Station
Rain Showers Rain Showers  
Wind Chill: 50°   Ceiling: NA
Heat Index: 50°   Visibility: 2.8mi
Dew Point: 50°   Wind: 33mph
Humidity: 100%   Direction: 240°WSW
Pressure: 29.62"   Gusts: 47mph
Location:  54.71°N, 3.5°W
Report Text: EGOM 220250Z AUTO 24029G41KT 4500 SHRA ///////// 10/10 Q1003
Loading
Personal Weather Stations






























Interactive Weather Map New forecast layout! Learn more

10-Day Weather Forecast

Advertisements
Track Severe Weather on mobile